Hyannis, MA (02601)

11:41 AM EDT on April 24, 2017 (GMT -0400)
Pitchers Way | | Change Station

Elev 52 ft 41.66 °N, 70.31 °W | Updated 30 seconds ago

Clear
Clear
63.0 °F
Feels Like 63.0 °F
N
5.0
Wind Variable Wind from SSE

Today
High -- | Low -- °F
--% Chance of Precip.
Yesterday
High -- | Low -- °F
Precip. -- in
Pressure 30.19 in
Visibility 10.0 miles
Clouds Clear
Dew Point 50 °F
Humidity 63%
Rainfall 0.00 in
Snow Depth Not available.
5:47 AM 7:31 PM
Waning Crescent, 5% visible
METAR KHYA 241456Z 19010KT 10SM CLR 11/08 A3019 RMK AO2 SLP224 T01110078 51008
Pressure 30.19 in
Visibility 10.0 miles
Clouds Clear
Dew Point 50 °F
Humidity 63%
Rainfall 0.00 in
Snow Depth Not available.
5:47 AM 7:31 PM
Waning Crescent, 5% visible
METAR KHYA 241456Z 19010KT 10SM CLR 11/08 A3019 RMK AO2 SLP224 T01110078 51008

Get Severe Weather Alerts

Thanks for signing up!

Be on the lookout for a verification email in your inbox.

You'll start receiving the daily forecast at 8 AM.

×

10-Day Weather Forecast

Almanac

Astronomy

Apr. 24, 2017 Rise Set
Actual Time
Civil Twilight
Nautical Twilight
Astronomical Twilight
Moon
Length of Visible Light
Length of Day
Tomorrow will be .
, % of the Moon is Illuminated

Today's Extremes

State Highs State Lows

Community

WunderPhotos

WunderBlog® & News

Nearby

Air Quality

  Air Quality AQ Index Pollutant
Not available.

Snow Depth

Station Depth Elevation

Earthquake Activity

City Distance Mag. Time & Date
Minimum magnitude displayed is 2.5.

Coastal Water Temperatures

Place Temperature

Stations

Nearby Weather Stations

Station Location Temp. Windchill Dew Point Humidity Wind Precip. Elev Updated Type
                   

Watches & Warnings

There are currently no watches in effect.